Martic Forge, Pennsylvania
Current Conditions -  °F | °C
As of 10:53 AM on Sunday 25 Jan 2015 (Local Time) from KLNS Reporting Station
Overcast Overcast  
Wind Chill: 30°   Ceiling: 4800
Heat Index: 38°   Visibility: 10mi
Dew Point: 29°   Wind: 13mph
Humidity: 70%   Direction: 250°WSW
Pressure: 29.81"   Gusts: NA
Location:  39.9024°N, 76.3233°W
Report Text: KLNS 251553Z 25011KT 10SM SCT040 OVC048 03/M02 A2981 RMK AO2 SLP098 T00331017
Loading
Personal Weather Stations






























Interactive Weather Map New forecast layout! Learn more

10-Day Weather Forecast

Advertisements
Track Severe Weather on mobile